Time;durP1;ratioP1;P1;durP2;ratioP2;P2;SDS_P1;SDS_P2;PMS_P1;PMS_P2;Temp;Humidity;BMP_temperature;BMP_pressure;BME280_temperature;BME280_humidity;BME280_pressure;Samples;Min_cycle;Max_cycle;Signal;HPM_P1;HPM_P2
2023/07/13 00:01:50;;;;;;;1.00;1.00;;;24.40;72.20;;;;;;5064657;28;43602;-77
2023/07/13 00:04:18;;;;;;;1.00;1.00;;;24.50;72.00;;;;;;5083998;28;43690;-71
2023/07/13 00:06:46;;;;;;;1.30;1.30;;;24.50;71.70;;;;;;5061792;28;44745;-71
2023/07/13 00:09:14;;;;;;;1.10;1.10;;;24.60;71.60;;;;;;5069313;28;43440;-71
2023/07/13 00:11:44;;;;;;;0.90;0.90;;;24.50;71.70;;;;;;5065564;28;43424;-71
2023/07/13 00:14:12;;;;;;;1.10;1.10;;;24.50;72.00;;;;;;5060863;28;45566;-72
2023/07/13 00:16:43;;;;;;;0.90;0.90;;;24.50;71.90;;;;;;5082022;28;43347;-72
2023/07/13 00:19:11;;;;;;;1.00;1.00;;;24.50;71.70;;;;;;5078347;27;43957;-71
2023/07/13 00:21:39;;;;;;;0.90;0.90;;;24.50;71.70;;;;;;5083636;28;43443;-71
2023/07/13 00:24:08;;;;;;;1.10;1.10;;;24.50;72.20;;;;;;5058017;28;45558;-71
2023/07/13 00:26:35;;;;;;;0.80;0.80;;;24.40;72.20;;;;;;5070887;28;43901;-71
2023/07/13 00:29:08;;;;;;;0.90;0.90;;;24.50;72.00;;;;;;5083420;28;43491;-71
2023/07/13 00:31:36;;;;;;;1.00;1.00;;;24.60;71.80;;;;;;5089048;28;43992;-71
2023/07/13 00:34:07;;;;;;;0.90;0.90;;;24.70;71.60;;;;;;5081667;28;43852;-73
2023/07/13 00:36:35;;;;;;;1.10;1.10;;;24.70;71.20;;;;;;5082424;28;43430;-71
2023/07/13 00:39:03;;;;;;;1.00;1.00;;;24.70;71.20;;;;;;5063441;28;43389;-71
2023/07/13 00:41:32;;;;;;;0.90;0.90;;;24.60;71.20;;;;;;5070763;28;43395;-71
2023/07/13 00:44:00;;;;;;;1.00;1.00;;;24.50;71.70;;;;;;5077230;28;43593;-71
2023/07/13 00:46:31;;;;;;;0.93;0.93;;;24.50;71.60;;;;;;5070705;28;43432;-72
2023/07/13 00:49:03;;;;;;;1.10;1.10;;;24.50;71.70;;;;;;5056464;28;43400;-72
2023/07/13 00:51:33;;;;;;;1.00;1.00;;;24.50;71.70;;;;;;5080658;28;44108;-71
2023/07/13 00:54:06;;;;;;;1.00;1.00;;;24.40;72.20;;;;;;5053798;28;45732;-71
2023/07/13 00:56:34;;;;;;;0.90;0.90;;;24.40;72.20;;;;;;5062239;28;43879;-71
2023/07/13 00:59:03;;;;;;;0.87;0.87;;;24.40;72.10;;;;;;5051974;28;43387;-71
2023/07/13 01:01:32;;;;;;;0.90;0.90;;;24.40;72.00;;;;;;5069351;28;43498;-71
2023/07/13 01:04:01;;;;;;;1.00;1.00;;;24.30;72.40;;;;;;5049373;28;46129;-71
2023/07/13 01:06:30;;;;;;;1.00;1.00;;;24.30;72.50;;;;;;5067160;28;44447;-71
2023/07/13 01:09:00;;;;;;;1.10;1.10;;;24.40;72.20;;;;;;5079713;28;43932;-71
2023/07/13 01:11:28;;;;;;;1.00;1.00;;;24.50;72.00;;;;;;5071768;28;43937;-71
2023/07/13 01:13:57;;;;;;;0.90;0.90;;;24.60;71.60;;;;;;5084029;28;43844;-77
2023/07/13 01:16:26;;;;;;;1.10;1.10;;;24.70;71.40;;;;;;5085652;28;43444;-71
2023/07/13 01:18:57;;;;;;;0.90;0.90;;;24.70;71.20;;;;;;5064293;28;43458;-72
2023/07/13 01:21:27;;;;;;;0.80;0.80;;;24.60;71.20;;;;;;5084007;28;43400;-71
2023/07/13 01:23:55;;;;;;;0.90;0.90;;;24.50;71.70;;;;;;5058174;28;45889;-71
2023/07/13 01:26:23;;;;;;;0.80;0.80;;;24.50;71.70;;;;;;5063684;28;44008;-71
2023/07/13 01:28:51;;;;;;;1.00;1.00;;;24.50;71.60;;;;;;5060565;28;43384;-71
2023/07/13 01:31:19;;;;;;;1.00;1.00;;;24.40;71.60;;;;;;5060447;28;43638;-71
2023/07/13 01:33:47;;;;;;;0.82;0.82;;;24.40;72.20;;;;;;5064284;28;45761;-71
2023/07/13 01:36:15;;;;;;;0.80;0.80;;;24.40;72.20;;;;;;5081901;28;43445;-71
2023/07/13 01:38:44;;;;;;;0.90;0.90;;;24.40;72.10;;;;;;5080473;28;43374;-71
2023/07/13 01:41:13;;;;;;;0.97;0.97;;;24.40;72.10;;;;;;5069205;28;43524;-71
2023/07/13 01:43:41;;;;;;;1.07;1.07;;;24.30;72.50;;;;;;5059272;28;45720;-74
2023/07/13 01:46:09;;;;;;;0.97;0.97;;;24.30;72.40;;;;;;5083542;28;43493;-71
2023/07/13 01:48:43;;;;;;;0.83;0.83;;;24.30;72.20;;;;;;5059758;28;43438;-70
2023/07/13 01:51:12;;;;;;;1.00;1.00;;;24.30;72.20;;;;;;5065324;28;43431;-70
2023/07/13 01:53:40;;;;;;;1.00;1.00;;;24.30;72.50;;;;;;5075507;28;43624;-70
2023/07/13 01:56:09;;;;;;;1.00;1.00;;;24.30;72.60;;;;;;5059336;28;44367;-70
2023/07/13 01:58:38;;;;;;;1.00;1.00;;;24.40;72.50;;;;;;5063598;28;43423;-70
2023/07/13 02:01:06;;;;;;;0.90;0.90;;;24.40;72.10;;;;;;5064422;28;43922;-70
2023/07/13 02:03:34;;;;;;;1.00;1.00;;;24.50;71.60;;;;;;5061247;28;43999;-70
2023/07/13 02:06:02;;;;;;;0.97;0.97;;;24.60;71.40;;;;;;5044005;28;44685;-70
2023/07/13 02:08:32;;;;;;;1.00;1.00;;;24.60;71.30;;;;;;5072054;28;43504;-72
2023/07/13 02:11:00;;;;;;;0.77;0.77;;;24.50;71.30;;;;;;5083545;28;43438;-70
2023/07/13 02:13:30;;;;;;;0.80;0.80;;;24.50;71.80;;;;;;5046351;28;45719;-70
2023/07/13 02:15:58;;;;;;;1.00;1.00;;;24.50;71.70;;;;;;5083060;28;43375;-71
2023/07/13 02:18:26;;;;;;;0.93;0.93;;;24.50;71.70;;;;;;5078238;28;43451;-70
2023/07/13 02:20:54;;;;;;;1.00;1.00;;;24.40;71.80;;;;;;5084738;28;43418;-72
2023/07/13 02:23:21;;;;;;;1.00;1.00;;;24.40;72.20;;;;;;5061830;28;43588;-71
2023/07/13 02:25:49;;;;;;;1.10;1.10;;;24.40;72.10;;;;;;5083126;28;43332;-70
2023/07/13 02:28:17;;;;;;;1.10;1.10;;;24.40;72.10;;;;;;5084390;28;44023;-70
2023/07/13 02:30:47;;;;;;;1.00;1.00;;;24.30;72.00;;;;;;5079002;28;43447;-70
2023/07/13 02:33:15;;;;;;;0.80;0.80;;;24.30;72.30;;;;;;5053414;28;47112;-70
2023/07/13 02:35:43;;;;;;;0.90;0.90;;;24.30;72.50;;;;;;5068752;28;43488;-70
2023/07/13 02:38:11;;;;;;;0.90;0.90;;;24.30;72.20;;;;;;5059478;28;43368;-70
2023/07/13 02:40:38;;;;;;;1.10;1.10;;;24.40;71.90;;;;;;5072040;28;43361;-71
2023/07/13 02:43:07;;;;;;;0.90;0.90;;;24.50;71.60;;;;;;5080766;28;43619;-70
2023/07/13 02:45:35;;;;;;;1.00;1.00;;;24.60;71.20;;;;;;5061771;28;44354;-70
2023/07/13 02:48:05;;;;;;;1.10;1.00;;;24.60;71.10;;;;;;5081792;28;43964;-70
2023/07/13 02:50:33;;;;;;;1.00;1.00;;;24.60;71.00;;;;;;5088530;28;43392;-70
2023/07/13 02:53:01;;;;;;;0.97;0.97;;;24.50;71.40;;;;;;5064860;28;46836;-70
2023/07/13 02:55:29;;;;;;;0.97;0.97;;;24.50;71.50;;;;;;5050346;28;43527;-70
2023/07/13 02:57:57;;;;;;;1.03;1.03;;;24.50;71.40;;;;;;5070350;28;43475;-72
2023/07/13 03:00:25;;;;;;;0.90;0.90;;;24.40;71.40;;;;;;5063719;28;43480;-69
2023/07/13 03:02:53;;;;;;;0.80;0.80;;;24.40;71.90;;;;;;5067905;28;43837;-71
2023/07/13 03:05:22;;;;;;;0.90;0.90;;;24.40;72.00;;;;;;5070258;28;43490;-70
2023/07/13 03:07:50;;;;;;;0.90;0.90;;;24.40;71.90;;;;;;5066996;28;43407;-70
2023/07/13 03:10:19;;;;;;;0.90;0.90;;;24.30;71.90;;;;;;5063325;28;43492;-70
2023/07/13 03:12:50;;;;;;;1.00;1.00;;;24.30;72.10;;;;;;5064322;28;44034;-70
2023/07/13 03:15:23;;;;;;;1.13;1.13;;;24.30;72.30;;;;;;5063646;28;44773;-72
2023/07/13 03:17:53;;;;;;;0.97;0.97;;;24.30;72.20;;;;;;5064798;28;43985;-70
2023/07/13 03:20:23;;;;;;;0.90;0.90;;;24.40;71.90;;;;;;5063890;28;43460;-72
2023/07/13 03:22:51;;;;;;;1.00;1.00;;;24.50;71.50;;;;;;5056463;28;46014;-70
2023/07/13 03:25:21;;;;;;;1.05;1.05;;;24.60;71.20;;;;;;5069303;28;43403;-70
2023/07/13 03:27:50;;;;;;;0.90;0.90;;;24.60;71.10;;;;;;5045929;28;43520;-71
2023/07/13 03:30:18;;;;;;;0.80;0.80;;;24.50;71.80;;;;;;5058120;28;44005;-70
2023/07/13 03:32:46;;;;;;;0.80;0.80;;;24.50;71.50;;;;;;5063341;28;45914;-70
2023/07/13 03:35:14;;;;;;;0.70;0.70;;;24.40;71.60;;;;;;5081965;28;43998;-70
2023/07/13 03:37:44;;;;;;;0.90;0.90;;;24.40;72.30;;;;;;5077937;28;43374;-70
2023/07/13 03:40:19;;;;;;;1.00;1.00;;;24.40;71.70;;;;;;5055735;28;43981;-71
2023/07/13 03:42:47;;;;;;;1.00;1.00;;;24.30;72.00;;;;;;5063178;28;45955;-71
2023/07/13 03:45:17;;;;;;;1.00;1.00;;;24.30;72.20;;;;;;5044022;28;43336;-71
2023/07/13 03:47:47;;;;;;;0.93;0.93;;;24.30;72.10;;;;;;5049460;28;43456;-71
2023/07/13 03:50:18;;;;;;;0.90;0.90;;;24.30;72.10;;;;;;5058075;28;43478;-71
2023/07/13 03:52:47;;;;;;;0.80;0.80;;;24.30;72.30;;;;;;5071643;28;43614;-73
2023/07/13 03:55:16;;;;;;;0.90;0.90;;;24.20;72.30;;;;;;5064437;28;44986;-71
2023/07/13 03:57:45;;;;;;;1.00;1.00;;;24.30;72.20;;;;;;5067793;28;43424;-70
2023/07/13 04:00:15;;;;;;;0.90;0.90;;;24.40;71.80;;;;;;5067415;28;43582;-72
2023/07/13 04:02:43;;;;;;;0.90;0.90;;;24.50;71.50;;;;;;5077068;28;45057;-70
2023/07/13 04:05:11;;;;;;;0.88;0.88;;;24.50;71.00;;;;;;5064188;28;44476;-69
2023/07/13 04:07:40;;;;;;;1.40;1.10;;;24.50;70.90;;;;;;5076919;28;43379;-73
2023/07/13 04:10:10;;;;;;;0.83;0.83;;;24.50;71.10;;;;;;5070073;28;43511;-72
2023/07/13 04:12:38;;;;;;;1.10;1.10;;;24.40;71.30;;;;;;5059763;28;45606;-71
2023/07/13 04:15:07;;;;;;;1.00;1.00;;;24.40;71.50;;;;;;5081092;28;43436;-71
2023/07/13 04:17:35;;;;;;;0.93;0.93;;;24.40;71.50;;;;;;5085036;28;43376;-71
2023/07/13 04:20:04;;;;;;;1.00;1.00;;;24.40;71.50;;;;;;5065549;28;43585;-71
2023/07/13 04:22:32;;;;;;;0.90;0.90;;;24.30;71.80;;;;;;5085457;28;43810;-72
2023/07/13 04:25:00;;;;;;;1.57;1.17;;;24.30;71.90;;;;;;5072303;28;44719;-72
2023/07/13 04:27:29;;;;;;;1.30;1.30;;;24.30;71.90;;;;;;5068116;28;43436;-71
2023/07/13 04:29:57;;;;;;;2.33;1.60;;;24.30;71.90;;;;;;5077305;28;43408;-72
2023/07/13 04:32:25;;;;;;;10.77;3.53;;;24.30;71.90;;;;;;5068442;28;43952;-72
2023/07/13 04:34:55;;;;;;;15.23;4.17;;;24.20;72.00;;;;;;5079003;28;43435;-72
2023/07/13 04:37:23;;;;;;;12.63;3.60;;;24.30;72.00;;;;;;5059613;28;43377;-74
2023/07/13 04:39:51;;;;;;;12.10;3.73;;;24.20;71.90;;;;;;5084103;28;43941;-70
2023/07/13 04:42:19;;;;;;;21.98;6.78;;;24.20;71.70;;;;;;5053809;28;45751;-70
2023/07/13 04:44:50;;;;;;;22.85;5.88;;;24.20;72.00;;;;;;5052832;28;44981;-71
2023/07/13 04:47:18;;;;;;;26.10;6.77;;;24.20;71.60;;;;;;5085256;28;43438;-71
2023/07/13 04:49:46;;;;;;;22.60;7.00;;;24.30;71.20;;;;;;5065002;28;43539;-70
2023/07/13 04:52:14;;;;;;;20.40;6.50;;;24.40;71.20;;;;;;5086073;28;43592;-72
2023/07/13 04:54:42;;;;;;;26.92;7.30;;;24.50;70.80;;;;;;5057634;28;44617;-70
2023/07/13 04:57:10;;;;;;;27.50;8.03;;;24.50;70.70;;;;;;5080508;28;43467;-70
2023/07/13 04:59:38;;;;;;;19.63;6.20;;;24.50;70.60;;;;;;5070966;28;43429;-71
2023/07/13 05:02:07;;;;;;;20.70;7.03;;;24.50;70.70;;;;;;5060159;28;45748;-72
2023/07/13 05:04:35;;;;;;;18.80;6.97;;;24.40;71.00;;;;;;5085622;28;44147;-70
2023/07/13 05:07:03;;;;;;;20.23;6.63;;;24.40;71.20;;;;;;5085470;27;43380;-70
2023/07/13 05:09:31;;;;;;;17.80;6.33;;;24.40;71.20;;;;;;5086244;28;43411;-71
2023/07/13 05:11:59;;;;;;;16.20;5.73;;;24.40;71.20;;;;;;5070284;28;43728;-70
2023/07/13 05:14:27;;;;;;;16.63;6.33;;;24.30;71.50;;;;;;5061388;28;44450;-70
2023/07/13 05:16:57;;;;;;;16.77;5.53;;;24.30;71.70;;;;;;5069781;28;43383;-70
2023/07/13 05:19:26;;;;;;;20.60;6.55;;;24.30;71.70;;;;;;5055969;28;43385;-70
2023/07/13 05:21:54;;;;;;;14.73;6.03;;;24.30;71.60;;;;;;5085925;28;43960;-70
2023/07/13 05:24:22;;;;;;;17.58;6.60;;;24.20;72.40;;;;;;5063196;28;43447;-71
2023/07/13 05:26:53;;;;;;;17.53;6.30;;;24.20;71.90;;;;;;5070075;28;43438;-71
2023/07/13 05:29:21;;;;;;;15.63;6.50;;;24.30;71.80;;;;;;5087670;28;43899;-70
2023/07/13 05:31:49;;;;;;;14.27;6.10;;;24.40;71.60;;;;;;5067170;28;43686;-72
2023/07/13 05:34:17;;;;;;;14.60;6.23;;;24.40;71.20;;;;;;5069299;28;43529;-70
2023/07/13 05:36:46;;;;;;;12.30;6.10;;;24.50;70.90;;;;;;5078845;28;43515;-70
2023/07/13 05:39:14;;;;;;;16.00;6.03;;;24.50;70.90;;;;;;5076774;28;43402;-77
2023/07/13 05:41:42;;;;;;;11.50;5.30;;;24.50;70.90;;;;;;5078856;28;43564;-71
2023/07/13 05:44:10;;;;;;;15.93;6.27;;;24.40;71.20;;;;;;5082898;28;43448;-71
2023/07/13 05:46:38;;;;;;;13.37;5.90;;;24.40;71.40;;;;;;5066188;28;43369;-70
2023/07/13 05:49:06;;;;;;;9.20;5.17;;;24.40;71.30;;;;;;5069680;28;43955;-70
2023/07/13 05:51:34;;;;;;;12.57;5.47;;;24.30;71.30;;;;;;5064544;28;43647;-70
2023/07/13 05:54:04;;;;;;;13.50;6.13;;;24.30;71.60;;;;;;5062403;28;44703;-73
2023/07/13 05:56:32;;;;;;;11.10;5.23;;;24.30;71.80;;;;;;5088630;28;43427;-70
2023/07/13 05:58:59;;;;;;;13.07;5.38;;;24.30;71.80;;;;;;5056745;28;44054;-71
2023/07/13 06:01:28;;;;;;;9.25;4.88;;;24.20;71.70;;;;;;5053094;28;45500;-70
2023/07/13 06:03:56;;;;;;;10.00;5.03;;;24.20;71.90;;;;;;5069607;28;43472;-73
2023/07/13 06:06:24;;;;;;;8.83;4.33;;;24.20;72.00;;;;;;5083717;28;43371;-71
2023/07/13 06:08:52;;;;;;;10.37;5.30;;;24.20;71.70;;;;;;5064427;28;43455;-72
2023/07/13 06:11:22;;;;;;;10.87;5.03;;;24.30;71.50;;;;;;5059369;28;45848;-72
2023/07/13 06:13:50;;;;;;;11.97;5.30;;;24.40;71.10;;;;;;5063318;28;43461;-71
2023/07/13 06:16:18;;;;;;;9.10;4.83;;;24.50;70.90;;;;;;5081493;28;43363;-72
2023/07/13 06:18:47;;;;;;;9.00;4.53;;;24.50;70.90;;;;;;5084487;27;43446;-71
2023/07/13 06:21:15;;;;;;;8.90;4.80;;;24.40;70.90;;;;;;5081678;28;43556;-71
2023/07/13 06:23:44;;;;;;;8.40;5.20;;;24.40;71.30;;;;;;5063663;28;44957;-71
2023/07/13 06:26:11;;;;;;;8.77;4.70;;;24.30;71.30;;;;;;5081848;28;43397;-72
2023/07/13 06:28:41;;;;;;;8.23;3.97;;;24.30;71.40;;;;;;5083363;28;43483;-72
2023/07/13 06:31:10;;;;;;;8.83;4.57;;;24.30;71.50;;;;;;5064862;28;43703;-71
2023/07/13 06:33:38;;;;;;;8.43;5.07;;;24.20;71.70;;;;;;5066747;28;44411;-71
2023/07/13 06:36:07;;;;;;;7.70;4.60;;;24.20;71.80;;;;;;5086767;28;43434;-69
2023/07/13 06:38:35;;;;;;;7.37;4.40;;;24.20;71.90;;;;;;5061827;28;43600;-70
2023/07/13 06:41:03;;;;;;;7.13;4.33;;;24.20;71.90;;;;;;5062223;28;46201;-76
2023/07/13 06:43:31;;;;;;;6.97;3.97;;;24.10;71.70;;;;;;5065941;28;43418;-70
2023/07/13 06:46:01;;;;;;;6.87;4.33;;;24.10;72.10;;;;;;5062790;28;43406;-71
2023/07/13 06:48:29;;;;;;;6.67;4.30;;;24.20;71.90;;;;;;5067966;28;43465;-69
2023/07/13 06:50:57;;;;;;;7.23;4.37;;;24.30;71.60;;;;;;5070442;28;43989;-70
2023/07/13 06:53:25;;;;;;;6.83;4.07;;;24.40;71.30;;;;;;5050027;28;44716;-70
2023/07/13 06:55:53;;;;;;;5.77;3.83;;;24.40;70.90;;;;;;5068295;28;44056;-70
2023/07/13 06:58:21;;;;;;;5.77;3.67;;;24.40;71.50;;;;;;5082168;28;43415;-70
2023/07/13 07:00:51;;;;;;;4.70;3.70;;;24.40;70.90;;;;;;5082537;28;43599;-70
2023/07/13 07:03:21;;;;;;;6.07;3.80;;;24.40;71.30;;;;;;5064147;28;44826;-71
2023/07/13 07:05:49;;;;;;;6.00;4.07;;;24.30;71.30;;;;;;5069632;28;43346;-74
2023/07/13 07:08:17;;;;;;;5.03;3.77;;;24.30;71.40;;;;;;5083323;28;43390;-71
2023/07/13 07:10:45;;;;;;;4.97;3.70;;;24.30;71.50;;;;;;5080498;28;43849;-71
2023/07/13 07:13:13;;;;;;;5.17;3.80;;;24.20;71.40;;;;;;5063511;28;44406;-71
2023/07/13 07:15:41;;;;;;;6.20;3.93;;;24.20;71.90;;;;;;5078182;28;43467;-70
2023/07/13 07:18:09;;;;;;;5.40;4.00;;;24.20;71.80;;;;;;5081837;28;43498;-71
2023/07/13 07:20:39;;;;;;;4.53;3.13;;;24.20;71.90;;;;;;5068275;28;43616;-71
2023/07/13 07:23:07;;;;;;;4.70;3.37;;;24.10;71.70;;;;;;5075764;28;43446;-71
2023/07/13 07:25:36;;;;;;;7.00;3.87;;;24.10;72.20;;;;;;5068668;28;43495;-70
2023/07/13 07:28:05;;;;;;;5.87;4.00;;;24.10;72.10;;;;;;5084648;28;43332;-71
2023/07/13 07:30:36;;;;;;;4.37;3.63;;;24.20;71.90;;;;;;5084514;28;43612;-71
2023/07/13 07:33:07;;;;;;;3.97;3.37;;;24.30;71.60;;;;;;5060028;28;43380;-71
2023/07/13 07:35:35;;;;;;;4.00;3.27;;;24.40;71.20;;;;;;5068002;28;43427;-72
2023/07/13 07:38:24;;;;;;;5.27;4.00;;;24.40;71.00;;;;;;5070029;28;43395;-72
2023/07/13 07:40:52;;;;;;;4.47;3.47;;;24.40;71.00;;;;;;5082541;28;43600;-71
2023/07/13 07:43:23;;;;;;;3.20;2.90;;;24.30;71.10;;;;;;5063781;28;43428;-71
2023/07/13 07:45:51;;;;;;;3.97;3.37;;;24.30;71.40;;;;;;5076109;28;43451;-71
2023/07/13 07:48:19;;;;;;;3.83;3.20;;;24.30;71.50;;;;;;5078306;28;43564;-71
2023/07/13 07:50:47;;;;;;;4.10;3.17;;;24.20;71.50;;;;;;5071687;28;43784;-71
2023/07/13 07:53:15;;;;;;;4.80;3.07;;;24.20;71.40;;;;;;5067141;28;44823;-71
2023/07/13 07:55:45;;;;;;;3.07;2.87;;;24.10;71.90;;;;;;5086344;28;43495;-74
2023/07/13 07:58:16;;;;;;;4.00;3.10;;;24.10;71.90;;;;;;5082580;28;43925;-71
2023/07/13 08:01:05;;;;;;;3.73;3.43;;;24.10;71.90;;;;;;5074991;28;44095;-70
2023/07/13 08:03:36;;;;;;;3.23;3.00;;;24.10;71.70;;;;;;5066557;28;43467;-70
2023/07/13 08:06:06;;;;;;;5.57;3.47;;;24.00;72.20;;;;;;5079787;28;43785;-70
2023/07/13 08:08:37;;;;;;;4.03;3.00;;;24.10;72.20;;;;;;5081373;28;43426;-80
2023/07/13 08:11:10;;;;;;;2.90;2.70;;;24.10;71.90;;;;;;5081771;28;43960;-70
2023/07/13 08:13:41;;;;;;;3.40;2.80;;;24.30;71.70;;;;;;5076500;28;43420;-71
2023/07/13 08:16:09;;;;;;;3.17;2.87;;;24.30;71.20;;;;;;5081682;28;43949;-71
2023/07/13 08:18:37;;;;;;;2.70;2.60;;;24.30;71.20;;;;;;5085794;28;44270;-72
2023/07/13 08:21:05;;;;;;;3.10;2.80;;;24.30;71.30;;;;;;5082781;28;43775;-71
2023/07/13 08:23:33;;;;;;;2.60;2.40;;;24.30;71.50;;;;;;5080186;28;43402;-71
2023/07/13 08:26:02;;;;;;;3.20;2.80;;;24.20;71.70;;;;;;5083153;28;43464;-71
2023/07/13 08:28:32;;;;;;;3.20;3.00;;;24.20;71.70;;;;;;5082885;28;43428;-71
2023/07/13 08:31:02;;;;;;;2.80;2.60;;;24.10;71.70;;;;;;5086443;28;43615;-71
2023/07/13 08:33:30;;;;;;;2.70;2.50;;;24.10;71.80;;;;;;5064893;28;45020;-71
2023/07/13 08:35:58;;;;;;;3.10;2.80;;;24.10;72.20;;;;;;5077064;28;43358;-71
2023/07/13 08:38:26;;;;;;;2.80;2.60;;;24.10;72.00;;;;;;5063858;28;43428;-72
2023/07/13 08:40:55;;;;;;;2.83;2.63;;;24.20;71.90;;;;;;5065557;28;45321;-71
2023/07/13 08:43:26;;;;;;;2.70;2.50;;;24.30;71.50;;;;;;5085378;28;43492;-71
2023/07/13 08:45:58;;;;;;;2.87;2.63;;;24.30;71.20;;;;;;5085326;28;43398;-71
2023/07/13 08:48:27;;;;;;;2.43;2.27;;;24.30;71.20;;;;;;5084347;28;43423;-70
2023/07/13 08:50:57;;;;;;;3.20;3.00;;;24.30;71.30;;;;;;5071873;28;46020;-70
2023/07/13 08:53:43;;;;;;;2.70;2.50;;;24.20;71.70;;;;;;5070194;28;44434;-71
2023/07/13 08:56:14;;;;;;;2.60;2.40;;;24.20;71.80;;;;;;5085673;28;43387;-71
2023/07/13 08:58:42;;;;;;;2.80;2.60;;;24.10;71.80;;;;;;5068997;28;43416;-71
2023/07/13 09:01:16;;;;;;;2.77;2.57;;;24.10;71.60;;;;;;5077979;28;43639;-70
2023/07/13 09:03:47;;;;;;;2.53;2.33;;;24.00;72.00;;;;;;5086063;28;43394;-70
2023/07/13 09:06:16;;;;;;;2.60;2.40;;;24.00;72.20;;;;;;5068938;28;43463;-72
2023/07/13 09:08:49;;;;;;;2.10;2.00;;;24.00;72.20;;;;;;5087121;28;43346;-71
2023/07/13 09:11:26;;;;;;;2.70;2.50;;;24.00;72.00;;;;;;5071707;28;45956;-72
2023/07/13 09:13:58;;;;;;;2.33;2.20;;;24.00;72.30;;;;;;5072006;28;45181;-71
2023/07/13 09:16:28;;;;;;;2.80;2.60;;;24.00;72.50;;;;;;5072710;28;43380;-71
2023/07/13 09:18:59;;;;;;;2.63;2.53;;;24.00;72.20;;;;;;5068122;28;43574;-72
2023/07/13 09:21:29;;;;;;;2.57;2.37;;;24.10;71.90;;;;;;5072057;28;43906;-72
2023/07/13 09:24:00;;;;;;;2.80;2.60;;;24.30;71.70;;;;;;5077691;28;43385;-71
2023/07/13 09:26:29;;;;;;;2.33;2.23;;;24.30;71.30;;;;;;5083184;28;43404;-70
2023/07/13 09:28:59;;;;;;;2.23;2.13;;;24.30;71.30;;;;;;5071574;28;43542;-71
2023/07/13 09:31:33;;;;;;;2.37;2.20;;;24.30;71.40;;;;;;5067651;28;45783;-70
2023/07/13 09:34:02;;;;;;;1.97;1.93;;;24.20;71.70;;;;;;5066661;28;44378;-70
2023/07/13 09:36:31;;;;;;;2.40;2.30;;;24.10;71.80;;;;;;5088721;28;43410;-71
2023/07/13 09:39:02;;;;;;;2.20;2.10;;;24.10;71.80;;;;;;5069958;28;43507;-71
2023/07/13 09:41:35;;;;;;;2.10;2.00;;;24.10;71.60;;;;;;5078970;28;43584;-71
2023/07/13 09:44:13;;;;;;;1.90;1.80;;;24.00;72.10;;;;;;5079804;28;43349;-70
2023/07/13 09:46:45;;;;;;;2.30;2.20;;;24.00;72.30;;;;;;5072762;28;43368;-73
2023/07/13 09:49:13;;;;;;;2.20;2.10;;;24.00;72.30;;;;;;5070741;28;43561;-70
2023/07/13 09:51:41;;;;;;;2.43;2.27;;;24.00;71.90;;;;;;5070918;28;45416;-71
2023/07/13 09:54:21;;;;;;;2.30;2.20;;;24.00;72.30;;;;;;5069377;28;44729;-70
2023/07/13 09:56:49;;;;;;;2.50;2.30;;;24.00;72.40;;;;;;5075978;28;43347;-71
2023/07/13 09:59:20;;;;;;;2.20;2.10;;;24.00;72.20;;;;;;5079116;28;43981;-71
2023/07/13 10:01:50;;;;;;;2.00;1.90;;;24.10;71.80;;;;;;5068299;28;43563;-71
2023/07/13 10:04:19;;;;;;;2.10;2.00;;;24.30;71.50;;;;;;5081613;28;43363;-71
2023/07/13 10:06:47;;;;;;;2.00;1.90;;;24.30;71.20;;;;;;5079060;28;43490;-71
2023/07/13 10:09:20;;;;;;;2.40;2.27;;;24.30;71.20;;;;;;5084365;28;44024;-70
2023/07/13 10:11:48;;;;;;;2.20;2.10;;;24.30;71.00;;;;;;5080273;28;43757;-71
2023/07/13 10:14:17;;;;;;;1.90;1.87;;;24.20;71.40;;;;;;5085125;28;43452;-70
2023/07/13 10:16:47;;;;;;;1.80;1.80;;;24.10;71.60;;;;;;5069915;28;43471;-70
2023/07/13 10:19:20;;;;;;;1.80;1.70;;;24.10;71.60;;;;;;5084144;28;43336;-72
2023/07/13 10:21:52;;;;;;;2.00;1.90;;;24.10;71.50;;;;;;5079821;28;43621;-72
2023/07/13 10:24:21;;;;;;;1.93;1.83;;;24.00;71.90;;;;;;5065511;28;44782;-71
2023/07/13 10:26:55;;;;;;;1.70;1.60;;;24.00;72.10;;;;;;5078718;28;43442;-73
2023/07/13 10:29:23;;;;;;;1.90;1.80;;;24.00;72.10;;;;;;5080278;28;43444;-74
2023/07/13 10:31:52;;;;;;;1.70;1.70;;;24.00;71.70;;;;;;5068181;28;46644;-71
2023/07/13 10:34:23;;;;;;;2.30;2.20;;;24.00;71.70;;;;;;5082760;28;43387;-71
2023/07/13 10:36:52;;;;;;;2.23;2.10;;;24.00;72.30;;;;;;5084418;28;43375;-71
2023/07/13 10:39:22;;;;;;;2.47;2.27;;;24.00;72.20;;;;;;5085899;28;43368;-71
2023/07/13 10:41:53;;;;;;;2.10;2.00;;;24.10;72.20;;;;;;5086436;28;43590;-71
2023/07/13 10:44:26;;;;;;;1.90;1.90;;;24.20;71.50;;;;;;5080054;28;43390;-71
2023/07/13 10:46:56;;;;;;;1.77;1.67;;;24.30;71.10;;;;;;5057697;28;43447;-71
2023/07/13 10:49:25;;;;;;;1.80;1.80;;;24.30;70.90;;;;;;5059042;28;43583;-71
2023/07/13 10:51:53;;;;;;;1.63;1.63;;;24.30;71.10;;;;;;5081803;28;43976;-70
2023/07/13 10:54:25;;;;;;;2.10;2.00;;;24.20;71.10;;;;;;5074603;28;43388;-70
2023/07/13 10:56:55;;;;;;;1.70;1.70;;;24.20;71.50;;;;;;5060456;28;43431;-71
2023/07/13 10:59:27;;;;;;;1.77;1.73;;;24.10;71.40;;;;;;5084997;28;43421;-72
2023/07/13 11:01:58;;;;;;;1.60;1.60;;;24.10;71.30;;;;;;5082536;28;45042;-70
2023/07/13 11:04:29;;;;;;;1.70;1.70;;;24.10;71.30;;;;;;5086691;28;43485;-69
2023/07/13 11:06:58;;;;;;;1.50;1.50;;;24.00;71.90;;;;;;5087910;28;43479;-71
2023/07/13 11:09:37;;;;;;;1.83;1.73;;;24.00;71.90;;;;;;5079670;28;43393;-71
2023/07/13 11:12:14;;;;;;;4.87;1.90;;;24.10;71.50;;;;;;5079976;28;43679;-69
2023/07/13 11:15:06;;;;;;;3.43;1.80;;;24.20;70.80;;;;;;5082614;28;43486;-72
2023/07/13 11:17:37;;;;;;;6.77;2.10;;;24.10;70.80;;;;;;5077118;28;44019;-70
2023/07/13 11:20:21;;;;;;;4.43;1.80;;;24.10;71.40;;;;;;5082425;28;43423;-71
2023/07/13 11:22:51;;;;;;;1.60;1.60;;;24.10;71.20;;;;;;5082941;28;43619;-72
2023/07/13 11:25:28;;;;;;;1.60;1.60;;;24.10;71.20;;;;;;5064866;28;44666;-72
2023/07/13 11:28:17;;;;;;;1.40;1.40;;;24.10;71.80;;;;;;5066752;28;43423;-71
2023/07/13 11:30:48;;;;;;;1.67;1.63;;;24.00;71.50;;;;;;5076697;28;43396;-70
2023/07/13 11:33:18;;;;;;;1.77;1.67;;;24.00;71.70;;;;;;5083938;28;43745;-71
2023/07/13 11:35:54;;;;;;;3.30;1.63;;;24.00;71.60;;;;;;5067651;28;43392;-70
2023/07/13 11:38:23;;;;;;;1.73;1.60;;;24.00;71.30;;;;;;5067464;28;43512;-70
2023/07/13 11:40:53;;;;;;;1.47;1.47;;;24.00;71.40;;;;;;5067910;28;43566;-70
2023/07/13 11:43:24;;;;;;;1.90;1.80;;;23.90;71.80;;;;;;5069453;28;46094;-70
2023/07/13 11:45:52;;;;;;;1.50;1.50;;;24.00;71.80;;;;;;5086869;28;43943;-71
2023/07/13 11:48:24;;;;;;;1.60;1.50;;;24.10;71.40;;;;;;5082724;28;43456;-72
2023/07/13 11:50:59;;;;;;;1.67;1.57;;;24.20;70.90;;;;;;5076457;28;43480;-71
2023/07/13 11:53:28;;;;;;;1.60;1.60;;;24.30;70.80;;;;;;5062666;28;46826;-70
2023/07/13 11:55:56;;;;;;;1.80;1.70;;;24.20;70.40;;;;;;5073253;28;43391;-71
2023/07/13 11:58:25;;;;;;;1.50;1.50;;;24.20;70.60;;;;;;5065788;28;43761;-70
2023/07/13 12:00:54;;;;;;;1.50;1.50;;;24.10;71.00;;;;;;5069727;28;43451;-71
2023/07/13 12:03:24;;;;;;;1.63;1.53;;;24.10;71.20;;;;;;5081483;28;43850;-72
2023/07/13 12:06:01;;;;;;;1.63;1.53;;;24.10;71.20;;;;;;5068095;28;44062;-70
2023/07/13 12:08:29;;;;;;;1.43;1.43;;;24.00;71.00;;;;;;5057014;28;43443;-70
2023/07/13 12:11:00;;;;;;;1.50;1.50;;;24.00;71.60;;;;;;5069031;28;43450;-70
2023/07/13 12:13:28;;;;;;;1.13;1.13;;;24.00;71.70;;;;;;5078280;28;43857;-70
2023/07/13 12:15:57;;;;;;;1.27;1.27;;;24.00;71.60;;;;;;5064764;28;44755;-71
2023/07/13 12:18:30;;;;;;;1.30;1.30;;;24.00;71.20;;;;;;5084715;28;43423;-72
2023/07/13 12:21:00;;;;;;;1.40;1.40;;;23.90;71.30;;;;;;5086693;28;43487;-71
2023/07/13 12:23:30;;;;;;;1.43;1.43;;;23.90;71.80;;;;;;5070142;28;45375;-71
2023/07/13 12:25:59;;;;;;;1.50;1.50;;;24.00;71.60;;;;;;5085484;28;43815;-70
2023/07/13 12:28:32;;;;;;;1.60;1.60;;;24.00;71.10;;;;;;5086306;28;43413;-70
2023/07/13 12:31:00;;;;;;;1.60;1.50;;;24.20;70.90;;;;;;5086032;28;43446;-70
2023/07/13 12:33:30;;;;;;;1.17;1.17;;;24.20;70.60;;;;;;5067617;28;43849;-70
2023/07/13 12:36:01;;;;;;;1.53;1.53;;;24.20;70.40;;;;;;5062832;28;43388;-71
2023/07/13 12:38:30;;;;;;;1.93;1.50;;;24.20;70.50;;;;;;5083339;28;43441;-72
2023/07/13 12:40:58;;;;;;;1.30;1.30;;;24.10;70.90;;;;;;5073134;28;43410;-71
2023/07/13 12:43:27;;;;;;;1.50;1.50;;;24.10;71.10;;;;;;5069245;28;46041;-71
2023/07/13 12:45:59;;;;;;;1.30;1.30;;;24.10;71.10;;;;;;5065837;28;44852;-72
2023/07/13 12:48:27;;;;;;;1.30;1.30;;;24.00;70.90;;;;;;5088012;28;43347;-71
2023/07/13 12:51:13;;;;;;;1.20;1.20;;;24.00;71.00;;;;;;5076505;28;43380;-71
2023/07/13 12:53:43;;;;;;;1.30;1.30;;;23.90;71.50;;;;;;5078139;28;43718;-73
2023/07/13 12:56:16;;;;;;;1.40;1.40;;;23.90;71.40;;;;;;5081884;28;43933;-71
2023/07/13 12:58:46;;;;;;;1.10;1.10;;;23.90;71.30;;;;;;5081611;28;43897;-72